createdAt,value
2022-10-07T00:01:57.372Z,20.90
2022-10-07T00:05:00.195Z,20.89
2022-10-07T00:08:02.957Z,20.89
2022-10-07T00:11:08.026Z,20.88
2022-10-07T00:14:11.521Z,20.89
2022-10-07T00:17:15.726Z,20.88
2022-10-07T00:20:18.495Z,20.88
2022-10-07T00:23:21.345Z,20.87
2022-10-07T00:26:26.533Z,20.87
2022-10-07T00:29:30.211Z,20.86
2022-10-07T00:32:34.398Z,20.86
2022-10-07T00:35:37.220Z,20.86
2022-10-07T00:38:41.979Z,20.86
2022-10-07T00:41:50.128Z,20.86
2022-10-07T00:44:52.990Z,20.85
2022-10-07T00:47:57.308Z,20.86
2022-10-07T00:51:02.750Z,20.86
2022-10-07T00:54:10.467Z,20.85
2022-10-07T00:57:13.378Z,20.85
2022-10-07T01:00:16.728Z,20.84
2022-10-07T01:03:21.280Z,20.83
2022-10-07T01:06:24.091Z,20.84
2022-10-07T01:09:27.341Z,20.83
2022-10-07T01:12:38.224Z,20.83
2022-10-07T01:15:47.080Z,20.83
2022-10-07T01:18:55.104Z,20.83
2022-10-07T01:22:10.222Z,20.83
2022-10-07T01:25:36.460Z,20.84
2022-10-07T01:28:46.739Z,20.84
2022-10-07T01:31:54.365Z,20.83
2022-10-07T01:34:58.712Z,20.82
2022-10-07T01:38:05.613Z,20.82
2022-10-07T01:41:12.316Z,20.82
2022-10-07T01:44:18.543Z,20.81
2022-10-07T01:47:21.473Z,20.81
2022-10-07T01:50:28.453Z,20.81
2022-10-07T01:53:45.716Z,20.79
2022-10-07T01:57:07.204Z,20.79
2022-10-07T02:00:13.324Z,20.80
2022-10-07T02:03:56.929Z,20.80
2022-10-07T02:07:09.686Z,20.81
2022-10-07T02:10:22.493Z,20.81
2022-10-07T02:13:30.348Z,20.79
2022-10-07T02:16:38.513Z,20.78
2022-10-07T02:19:45.436Z,20.77
2022-10-07T02:22:51.485Z,20.78
2022-10-07T02:25:57.017Z,20.78
2022-10-07T02:29:04.448Z,20.78
2022-10-07T02:32:13.283Z,20.77
2022-10-07T02:35:24.973Z,20.77
2022-10-07T02:38:27.962Z,20.76
2022-10-07T02:41:36.200Z,20.77
2022-10-07T02:44:51.977Z,20.76
2022-10-07T02:48:05.518Z,20.77
2022-10-07T02:51:12.543Z,20.77
2022-10-07T02:54:19.609Z,20.75
2022-10-07T02:57:24.680Z,20.76
2022-10-07T03:00:30.436Z,20.76
2022-10-07T03:03:34.759Z,20.75
2022-10-07T03:06:42.106Z,20.75
2022-10-07T03:09:45.083Z,20.75
2022-10-07T03:12:49.109Z,20.74
2022-10-07T03:15:53.180Z,20.75
2022-10-07T03:19:01.702Z,20.74
2022-10-07T03:22:27.381Z,20.74
2022-10-07T03:25:30.296Z,20.74
2022-10-07T03:28:37.532Z,20.74
2022-10-07T03:31:42.843Z,20.74
2022-10-07T03:34:47.172Z,20.74
2022-10-07T03:37:49.971Z,20.73
2022-10-07T03:40:54.222Z,20.73
2022-10-07T03:43:59.280Z,20.72
2022-10-07T03:47:06.669Z,20.73
2022-10-07T03:50:14.236Z,20.72
2022-10-07T03:53:17.089Z,20.72
2022-10-07T03:56:20.028Z,20.71
2022-10-07T03:59:22.898Z,20.71
2022-10-07T04:02:26.297Z,20.70
2022-10-07T04:05:34.199Z,20.70
2022-10-07T04:08:37.481Z,20.70
2022-10-07T04:11:42.166Z,20.71
2022-10-07T04:14:46.042Z,20.70
2022-10-07T04:17:50.024Z,20.71
2022-10-07T04:21:00.041Z,20.71
2022-10-07T04:24:03.194Z,20.70
2022-10-07T04:27:05.998Z,20.69
2022-10-07T04:30:10.035Z,20.69
2022-10-07T04:33:13.411Z,20.69
2022-10-07T04:36:17.892Z,20.69
2022-10-07T04:39:56.004Z,20.69
2022-10-07T04:43:09.863Z,20.69
2022-10-07T04:46:14.256Z,20.68
2022-10-07T04:49:23.673Z,20.68
2022-10-07T04:52:27.961Z,20.68
2022-10-07T04:55:31.084Z,20.68
2022-10-07T04:58:34.387Z,20.67
2022-10-07T05:01:37.378Z,20.67
2022-10-07T05:04:40.418Z,20.68
2022-10-07T05:07:50.719Z,20.68
2022-10-07T05:10:56.255Z,20.68
2022-10-07T05:14:01.924Z,20.66
2022-10-07T05:17:06.339Z,20.67
2022-10-07T05:20:12.370Z,20.66
2022-10-07T05:23:18.987Z,20.66
2022-10-07T05:26:22.677Z,20.66
2022-10-07T05:29:31.451Z,20.65
2022-10-07T05:32:34.337Z,20.65
2022-10-07T05:35:37.498Z,20.66
2022-10-07T05:38:41.897Z,20.65
2022-10-07T05:41:46.138Z,20.66
2022-10-07T05:44:52.250Z,20.66
2022-10-07T05:47:57.473Z,20.66
2022-10-07T05:51:00.795Z,20.66
2022-10-07T05:54:08.380Z,20.66
2022-10-07T05:57:15.337Z,20.65
2022-10-07T06:00:18.767Z,20.65
2022-10-07T06:03:26.385Z,20.65
2022-10-07T06:06:31.722Z,20.65
2022-10-07T06:09:57.281Z,20.64
2022-10-07T06:13:08.887Z,20.64
2022-10-07T06:16:14.222Z,20.65
2022-10-07T06:19:22.583Z,20.64
2022-10-07T06:22:27.721Z,20.64
2022-10-07T06:25:32.161Z,20.64
2022-10-07T06:28:37.139Z,20.64
2022-10-07T06:31:40.662Z,20.64
2022-10-07T06:34:45.073Z,20.65
2022-10-07T06:37:48.938Z,20.66
2022-10-07T06:41:00.153Z,20.66
2022-10-07T06:44:05.044Z,20.64
2022-10-07T06:47:11.599Z,20.64
2022-10-07T06:50:16.727Z,20.64
2022-10-07T06:53:19.774Z,20.64
2022-10-07T06:56:24.568Z,20.65
2022-10-07T06:59:27.710Z,20.63
2022-10-07T07:02:39.719Z,20.63
2022-10-07T07:05:45.749Z,20.64
2022-10-07T07:08:58.476Z,20.65
2022-10-07T07:12:03.321Z,20.66
2022-10-07T07:15:11.218Z,20.67
2022-10-07T07:18:16.987Z,20.69
2022-10-07T07:21:20.022Z,20.71
2022-10-07T07:24:23.077Z,20.72
2022-10-07T07:27:27.512Z,20.72
2022-10-07T07:30:31.234Z,20.73
2022-10-07T07:33:38.294Z,20.74
2022-10-07T07:36:45.428Z,20.75
2022-10-07T07:39:49.865Z,20.76
2022-10-07T07:42:55.979Z,20.75
2022-10-07T07:45:59.378Z,20.77
2022-10-07T07:49:02.810Z,20.78
2022-10-07T07:52:06.537Z,20.79
2022-10-07T07:55:15.846Z,20.80
2022-10-07T07:58:21.108Z,20.81
2022-10-07T08:01:24.186Z,20.79
2022-10-07T08:04:27.596Z,20.76
2022-10-07T08:07:33.000Z,20.73
2022-10-07T08:10:37.099Z,20.69
2022-10-07T08:13:42.280Z,20.66
2022-10-07T08:16:48.606Z,20.64
2022-10-07T08:19:51.535Z,20.63
2022-10-07T08:22:58.930Z,20.63
2022-10-07T08:26:04.494Z,20.62
2022-10-07T08:29:09.233Z,20.63
2022-10-07T08:32:12.353Z,20.65
2022-10-07T08:35:15.323Z,20.66
2022-10-07T08:38:18.232Z,20.68
2022-10-07T08:41:36.332Z,20.67
2022-10-07T08:44:42.703Z,20.68
2022-10-07T08:47:47.339Z,20.69
2022-10-07T08:50:58.177Z,20.69
2022-10-07T08:54:01.454Z,20.70
2022-10-07T08:57:09.909Z,20.70
2022-10-07T09:00:17.711Z,20.71
2022-10-07T09:03:35.801Z,20.72
2022-10-07T09:06:42.379Z,20.73
2022-10-07T09:09:54.839Z,20.74
2022-10-07T09:13:01.930Z,20.73
2022-10-07T09:16:11.976Z,20.76
2022-10-07T09:19:22.535Z,20.76
2022-10-07T09:22:33.064Z,20.78
2022-10-07T09:25:36.179Z,20.79
2022-10-07T09:28:39.376Z,20.80
2022-10-07T09:31:43.947Z,20.81
2022-10-07T09:34:47.498Z,20.81
2022-10-07T09:37:59.329Z,20.82
2022-10-07T09:41:17.331Z,20.81
2022-10-07T09:44:27.042Z,20.83
2022-10-07T09:47:37.281Z,20.83
2022-10-07T09:50:41.508Z,20.82
2022-10-07T09:53:58.671Z,20.82
2022-10-07T09:57:04.577Z,20.82
2022-10-07T10:00:25.959Z,20.81
2022-10-07T10:03:32.233Z,20.81
2022-10-07T10:06:35.421Z,20.82
2022-10-07T10:09:38.294Z,20.81
2022-10-07T10:12:47.507Z,20.81
2022-10-07T10:15:50.558Z,20.80
2022-10-07T10:18:58.802Z,20.79
2022-10-07T10:22:01.717Z,20.79
2022-10-07T10:25:22.512Z,20.79
2022-10-07T10:28:38.656Z,20.78
2022-10-07T10:32:02.721Z,20.79
2022-10-07T10:35:14.789Z,20.78
2022-10-07T10:38:32.404Z,20.78
2022-10-07T10:41:44.195Z,20.77
2022-10-07T10:44:56.010Z,20.76
2022-10-07T10:48:16.397Z,20.77
2022-10-07T10:51:34.285Z,20.77
2022-10-07T10:54:47.911Z,20.78
2022-10-07T10:58:02.704Z,20.77
2022-10-07T11:01:14.769Z,20.78
2022-10-07T11:04:29.145Z,20.78
2022-10-07T11:07:37.942Z,20.77
2022-10-07T11:10:45.574Z,20.77
2022-10-07T11:13:54.380Z,20.75
2022-10-07T11:17:01.855Z,20.76
2022-10-07T11:20:16.433Z,20.76
2022-10-07T11:23:24.586Z,20.75
2022-10-07T11:26:34.903Z,20.76
2022-10-07T11:29:46.584Z,20.76
2022-10-07T11:32:55.946Z,20.76
2022-10-07T11:36:05.553Z,20.76
2022-10-07T11:39:10.755Z,20.77
2022-10-07T11:42:19.668Z,20.76
2022-10-07T11:45:27.154Z,20.77
2022-10-07T11:48:37.624Z,20.78
2022-10-07T11:51:50.139Z,20.78
2022-10-07T11:55:00.577Z,20.77
2022-10-07T11:58:06.220Z,20.78
2022-10-07T12:01:53.366Z,20.77
2022-10-07T12:04:57.433Z,20.76
2022-10-07T12:08:02.943Z,20.76
2022-10-07T12:11:44.381Z,20.75
2022-10-07T12:15:00.733Z,20.76
2022-10-07T12:18:28.389Z,20.76
2022-10-07T12:22:18.836Z,20.76
2022-10-07T12:25:32.188Z,20.77
2022-10-07T12:28:46.056Z,20.77
2022-10-07T12:31:50.534Z,20.78
2022-10-07T12:34:53.408Z,20.79
2022-10-07T12:38:06.140Z,20.79
2022-10-07T12:41:20.860Z,20.80
2022-10-07T12:44:27.259Z,20.80
2022-10-07T12:47:32.454Z,20.82
2022-10-07T12:50:35.348Z,20.82
2022-10-07T12:53:42.698Z,20.83
2022-10-07T12:56:45.936Z,20.83
2022-10-07T13:00:00.103Z,20.83
2022-10-07T13:03:42.565Z,20.83
2022-10-07T13:07:25.700Z,20.82
2022-10-07T13:11:10.843Z,20.80
2022-10-07T13:14:20.687Z,20.81
2022-10-07T13:17:41.449Z,20.80
2022-10-07T13:21:03.437Z,20.79
2022-10-07T13:24:06.538Z,20.79
2022-10-07T13:27:09.843Z,20.80
2022-10-07T13:30:34.868Z,20.80
2022-10-07T13:33:37.749Z,20.80
2022-10-07T13:36:44.301Z,20.81
2022-10-07T13:39:47.147Z,20.80
2022-10-07T13:42:55.531Z,20.81
2022-10-07T13:46:00.071Z,20.80
2022-10-07T13:49:04.349Z,20.80
2022-10-07T13:52:20.468Z,20.81
2022-10-07T13:55:29.347Z,20.80
2022-10-07T13:58:33.236Z,20.80
2022-10-07T14:01:40.098Z,20.79
2022-10-07T14:04:56.204Z,20.80
2022-10-07T14:08:13.049Z,20.79
2022-10-07T14:11:22.283Z,20.79
2022-10-07T14:14:28.065Z,20.82
2022-10-07T14:17:40.999Z,20.82
2022-10-07T14:20:50.708Z,20.81
2022-10-07T14:23:54.895Z,20.80
2022-10-07T14:26:58.003Z,20.80
2022-10-07T14:30:01.360Z,20.80
2022-10-07T14:33:28.051Z,20.79
2022-10-07T14:36:31.164Z,20.79
2022-10-07T14:39:37.398Z,20.79
2022-10-07T14:42:40.171Z,20.78
2022-10-07T14:45:42.979Z,20.78
2022-10-07T14:48:46.581Z,20.79
2022-10-07T14:51:50.277Z,20.78
2022-10-07T14:54:56.035Z,20.79
2022-10-07T14:57:58.785Z,20.81
2022-10-07T15:01:01.611Z,20.79
2022-10-07T15:04:04.487Z,20.81
2022-10-07T15:07:07.392Z,20.80
2022-10-07T15:10:18.031Z,20.80
2022-10-07T15:13:20.902Z,20.79
2022-10-07T15:16:26.974Z,20.79
2022-10-07T15:19:30.394Z,20.78
2022-10-07T15:22:33.517Z,20.78
2022-10-07T15:25:42.481Z,20.78
2022-10-07T15:28:45.297Z,20.78
2022-10-07T15:31:48.118Z,20.78
2022-10-07T15:34:52.342Z,20.78
2022-10-07T15:37:55.302Z,20.79
2022-10-07T15:41:01.515Z,20.78
2022-10-07T15:44:06.652Z,20.80
2022-10-07T15:47:09.653Z,20.79
2022-10-07T15:50:12.427Z,20.79
2022-10-07T15:53:16.437Z,20.79
2022-10-07T15:56:20.832Z,20.78
2022-10-07T15:59:23.677Z,20.78
2022-10-07T16:02:26.452Z,20.78
2022-10-07T16:05:31.315Z,20.78
2022-10-07T16:08:34.171Z,20.77
2022-10-07T16:11:38.339Z,20.76
2022-10-07T16:14:41.099Z,20.77
2022-10-07T16:17:44.172Z,20.77
2022-10-07T16:20:46.972Z,20.77
2022-10-07T16:23:51.389Z,20.78
2022-10-07T16:26:57.206Z,20.79
2022-10-07T16:30:17.500Z,20.78
2022-10-07T16:33:20.276Z,20.78
2022-10-07T16:36:25.473Z,20.78
2022-10-07T16:39:28.461Z,20.77
2022-10-07T16:42:32.736Z,20.77
2022-10-07T16:45:35.480Z,20.76
2022-10-07T16:48:39.883Z,20.76
2022-10-07T16:51:43.677Z,20.76
2022-10-07T16:54:46.494Z,20.76
2022-10-07T16:57:51.257Z,20.75
2022-10-07T17:01:01.413Z,20.76
2022-10-07T17:04:04.318Z,20.77
2022-10-07T17:07:07.161Z,20.77
2022-10-07T17:10:10.776Z,20.77
2022-10-07T17:13:15.166Z,20.78
2022-10-07T17:16:18.526Z,20.76
2022-10-07T17:19:23.100Z,20.77
2022-10-07T17:22:26.021Z,20.76
2022-10-07T17:25:28.830Z,20.75
2022-10-07T17:28:33.091Z,20.76
2022-10-07T17:31:39.031Z,20.75
2022-10-07T17:34:45.333Z,20.75
2022-10-07T17:37:49.261Z,20.74
2022-10-07T17:40:52.273Z,20.75
2022-10-07T17:43:58.394Z,20.76
2022-10-07T17:47:03.828Z,20.75
2022-10-07T17:50:07.237Z,20.76
2022-10-07T17:53:10.047Z,20.76
2022-10-07T17:56:15.809Z,20.75
2022-10-07T17:59:20.020Z,20.75
2022-10-07T18:02:22.957Z,20.75
2022-10-07T18:05:26.394Z,20.74
2022-10-07T18:08:29.277Z,20.74
2022-10-07T18:11:50.513Z,20.74
2022-10-07T18:15:11.955Z,20.73
2022-10-07T18:18:15.593Z,20.74
2022-10-07T18:21:18.670Z,20.73
2022-10-07T18:24:21.457Z,20.73
2022-10-07T18:27:27.215Z,20.73
2022-10-07T18:30:31.352Z,20.74
2022-10-07T18:33:35.905Z,20.74
2022-10-07T18:36:38.731Z,20.73
2022-10-07T18:39:41.984Z,20.73
2022-10-07T18:42:44.764Z,20.72
2022-10-07T18:45:48.925Z,20.73
2022-10-07T18:48:52.091Z,20.73
2022-10-07T18:51:54.974Z,20.72
2022-10-07T18:54:57.786Z,20.71
2022-10-07T18:58:00.596Z,20.71
2022-10-07T19:01:08.469Z,20.72
2022-10-07T19:04:11.760Z,20.72
2022-10-07T19:07:14.600Z,20.71
2022-10-07T19:10:17.465Z,20.71
2022-10-07T19:13:42.911Z,20.71
2022-10-07T19:16:49.901Z,20.72
2022-10-07T19:19:53.018Z,20.72
2022-10-07T19:22:55.805Z,20.73
2022-10-07T19:26:00.144Z,20.73
2022-10-07T19:29:04.713Z,20.75
2022-10-07T19:32:09.170Z,20.74
2022-10-07T19:35:12.072Z,20.75
2022-10-07T19:38:15.080Z,20.75
2022-10-07T19:41:18.098Z,20.74
2022-10-07T19:44:22.241Z,20.75
2022-10-07T19:47:26.420Z,20.74
2022-10-07T19:50:29.182Z,20.74
2022-10-07T19:53:34.797Z,20.75
2022-10-07T19:56:38.400Z,20.76
2022-10-07T19:59:41.219Z,20.75
2022-10-07T20:02:45.454Z,20.76
2022-10-07T20:05:48.340Z,20.76
2022-10-07T20:08:51.133Z,20.76
2022-10-07T20:11:55.877Z,20.75
2022-10-07T20:14:58.700Z,20.75
2022-10-07T20:18:03.919Z,20.75
2022-10-07T20:21:11.208Z,20.75
2022-10-07T20:24:16.175Z,20.75
2022-10-07T20:27:19.961Z,20.75
2022-10-07T20:30:22.797Z,20.75
2022-10-07T20:33:27.012Z,20.75
2022-10-07T20:36:31.177Z,20.75
2022-10-07T20:39:53.537Z,20.75
2022-10-07T20:42:57.273Z,20.75
2022-10-07T20:46:00.301Z,20.75
2022-10-07T20:49:10.862Z,20.76
2022-10-07T20:52:17.178Z,20.75
2022-10-07T20:55:20.028Z,20.76
2022-10-07T20:58:22.792Z,20.76
2022-10-07T21:01:25.744Z,20.75
2022-10-07T21:04:30.036Z,20.75
2022-10-07T21:07:32.795Z,20.76
2022-10-07T21:10:35.626Z,20.75
2022-10-07T21:13:38.465Z,20.76
2022-10-07T21:16:41.376Z,20.75
2022-10-07T21:19:45.743Z,20.76
2022-10-07T21:22:49.701Z,20.76
2022-10-07T21:25:52.849Z,20.76
2022-10-07T21:28:55.705Z,20.76
2022-10-07T21:31:58.855Z,20.76
2022-10-07T21:35:03.338Z,20.76
2022-10-07T21:38:06.246Z,20.76
2022-10-07T21:41:13.659Z,20.77
2022-10-07T21:44:16.644Z,20.76
2022-10-07T21:47:19.490Z,20.76
2022-10-07T21:50:23.730Z,20.76
2022-10-07T21:53:27.125Z,20.76
2022-10-07T21:56:32.707Z,20.76
2022-10-07T21:59:35.539Z,20.77
2022-10-07T22:02:38.422Z,20.77
2022-10-07T22:05:42.976Z,20.76
2022-10-07T22:08:46.393Z,20.77
2022-10-07T22:11:50.333Z,20.77
2022-10-07T22:14:53.245Z,20.77
2022-10-07T22:17:56.547Z,20.78
2022-10-07T22:21:01.565Z,20.77
2022-10-07T22:24:07.050Z,20.76
2022-10-07T22:27:09.848Z,20.75
2022-10-07T22:30:13.713Z,20.75
2022-10-07T22:33:16.503Z,20.73
2022-10-07T22:36:20.760Z,20.73
2022-10-07T22:39:23.545Z,20.72
2022-10-07T22:42:26.574Z,20.71
2022-10-07T22:45:29.378Z,20.71
2022-10-07T22:48:34.305Z,20.71
2022-10-07T22:51:38.458Z,20.69
2022-10-07T22:54:41.298Z,20.70
2022-10-07T22:57:44.070Z,20.70
2022-10-07T23:00:47.038Z,20.69
2022-10-07T23:03:49.995Z,20.69
2022-10-07T23:06:54.199Z,20.68
2022-10-07T23:09:56.989Z,20.68
2022-10-07T23:13:02.337Z,20.67
2022-10-07T23:16:08.116Z,20.68
2022-10-07T23:19:11.125Z,20.68
2022-10-07T23:22:15.266Z,20.67
2022-10-07T23:25:18.146Z,20.67
2022-10-07T23:28:21.965Z,20.66
2022-10-07T23:31:27.423Z,20.67
2022-10-07T23:34:30.372Z,20.67
2022-10-07T23:37:35.238Z,20.66
2022-10-07T23:40:38.216Z,20.67
2022-10-07T23:43:41.276Z,20.66
2022-10-07T23:46:44.862Z,20.66
2022-10-07T23:49:47.817Z,20.66
2022-10-07T23:52:52.032Z,20.65
2022-10-07T23:55:54.941Z,20.64
2022-10-07T23:58:58.394Z,20.64
